Portada
METAR-TAF:

METAR-TAF

Aeropuertos :

Aeropuerto de Tánger-Ibn Battuta

Tánger, Marruecos

latitud: 35-44N, longitud: 005-54W, altitud: 19 m

Observación

El informe se hizo hace 33 minutos, a las 13:00 UTC
Viento 17 kt del este
Temperatura 17°C
Humedad 55%
Presión 1028 hPa
Visibilidad 10 km o más
Escasas nubes a una altura de 3000 ft

METAR: GMTT 031300Z 08017KT 9999 FEW030 17/08 Q1028 NOSIG

Hora: 14:33 (13:33 UTC)

Pronóstico

El informe se hizo hace 2 horas y 33 minutos, a las 11:00 UTC
Pronóstico válido del 03 a las 12 UTC al 04 a las 18 UTC
Viento 15 kt del este
Visibilidad 10 km o más
Nubes dispersas a una altura de 3000 ft

TAF: GMTT 031100Z 0312/0418 08015KT 9999 SCT030

Observaciones y pronósticos meteorológicos de más de 4000 aeropuertos (mensajes METAR y TAF).

Los puntos amarillos y rojos representan las estaciones disponibles.

Ponga el ratón en el punto deseado para ver el nombre de la estación.

Haga clic para ver las observaciones y los pronósticos meteorológicos.

Para cambiar el mapa : haga clic en los botones verdes con una cruz de color negro para hacer un zoom, en el botón verde con un guión para alejar o en las flechas verdes para mapas adyacentes.


METAR-TAF: